Playas, New Mexico
Current Conditions -  °F | °C
As of 3:55 PM on Saturday 25 Oct 2014 (Local Time) from KLSB Reporting Station
Clear Clear  
Wind Chill: 82°   Ceiling: Unl
Heat Index: 82°   Visibility: 10mi
Dew Point: 41°   Wind: 3mph
Humidity: 23%   Direction: 280°W
Pressure: 30.17"   Gusts: NA
Location:  31.92°N, 108.53°W
Report Text: KLSB 252155Z AUTO 28003KT 10SM CLR 28/05 A3017 RMK AO2
Loading
Personal Weather Stations






























Interactive Weather Map
Tropical Storm Tracking
New forecast layout! Learn more

10-Day Weather Forecast

Advertisements
Track Severe Weather on mobile